sensor_id;sensor_type;location;lat;lon;timestamp;pressure;altitude;pressure_sealevel;temperature;humidity
15056;BME280;7626;42.674;23.284;2023-01-23T00:01:59;95140.13;;;12.29;63.92
15056;BME280;7626;42.674;23.284;2023-01-23T00:04:29;95135.41;;;12.34;63.36
15056;BME280;7626;42.674;23.284;2023-01-23T00:06:57;95140.94;;;12.29;63.61
15056;BME280;7626;42.674;23.284;2023-01-23T00:09:25;95162.22;;;12.34;64.29
15056;BME280;7626;42.674;23.284;2023-01-23T00:11:55;95158.09;;;12.32;64.31
15056;BME280;7626;42.674;23.284;2023-01-23T00:14:23;95151.81;;;12.23;63.83
15056;BME280;7626;42.674;23.284;2023-01-23T00:16:50;95160.19;;;12.27;63.37
15056;BME280;7626;42.674;23.284;2023-01-23T00:19:21;95146.38;;;12.26;63.35
15056;BME280;7626;42.674;23.284;2023-01-23T00:21:49;95144.38;;;12.30;63.86
15056;BME280;7626;42.674;23.284;2023-01-23T00:24:17;95151.22;;;12.31;63.48
15056;BME280;7626;42.674;23.284;2023-01-23T00:26:45;95152.63;;;12.35;65.61
15056;BME280;7626;42.674;23.284;2023-01-23T00:29:15;95154.31;;;12.36;65.11
15056;BME280;7626;42.674;23.284;2023-01-23T00:31:43;95146.84;;;12.31;64.10
15056;BME280;7626;42.674;23.284;2023-01-23T00:34:14;95154.31;;;12.36;64.21
15056;BME280;7626;42.674;23.284;2023-01-23T00:36:43;95153.59;;;12.34;64.41
15056;BME280;7626;42.674;23.284;2023-01-23T00:39:15;95162.34;;;12.33;63.53
15056;BME280;7626;42.674;23.284;2023-01-23T00:41:44;95163.88;;;12.36;63.92
15056;BME280;7626;42.674;23.284;2023-01-23T00:44:20;95163.88;;;12.36;63.92
15056;BME280;7626;42.674;23.284;2023-01-23T00:46:48;95164.22;;;12.31;64.01
15056;BME280;7626;42.674;23.284;2023-01-23T00:49:16;95173.69;;;12.32;63.76
15056;BME280;7626;42.674;23.284;2023-01-23T00:51:45;95172.75;;;12.33;63.24
15056;BME280;7626;42.674;23.284;2023-01-23T00:54:13;95163.41;;;12.30;63.55
15056;BME280;7626;42.674;23.284;2023-01-23T00:56:45;95154.75;;;12.30;63.03
15056;BME280;7626;42.674;23.284;2023-01-23T00:59:13;95164.69;;;12.25;63.53
15056;BME280;7626;42.674;23.284;2023-01-23T01:01:44;95164.22;;;12.31;63.80
15056;BME280;7626;42.674;23.284;2023-01-23T01:04:12;95169.06;;;12.24;63.35
15056;BME280;7626;42.674;23.284;2023-01-23T01:06:40;95162.53;;;12.19;63.46
15056;BME280;7626;42.674;23.284;2023-01-23T01:09:09;95157.84;;;12.24;63.40
15056;BME280;7626;42.674;23.284;2023-01-23T01:11:37;95152.16;;;12.19;63.37
15056;BME280;7626;42.674;23.284;2023-01-23T01:14:05;95158.53;;;12.14;63.16
15056;BME280;7626;42.674;23.284;2023-01-23T01:16:33;95168.00;;;12.15;63.15
15056;BME280;7626;42.674;23.284;2023-01-23T01:19:06;95168.81;;;12.16;63.06
15056;BME280;7626;42.674;23.284;2023-01-23T01:21:34;95165.84;;;12.09;63.28
15056;BME280;7626;42.674;23.284;2023-01-23T01:24:03;95177.06;;;12.10;63.55
15056;BME280;7626;42.674;23.284;2023-01-23T01:26:31;95180.63;;;12.09;63.68
15056;BME280;7626;42.674;23.284;2023-01-23T01:28:59;95174.34;;;12.11;63.67
15056;BME280;7626;42.674;23.284;2023-01-23T01:31:29;95178.84;;;12.09;63.46
15056;BME280;7626;42.674;23.284;2023-01-23T01:33:57;95190.16;;;12.08;63.66
15056;BME280;7626;42.674;23.284;2023-01-23T01:36:27;95181.94;;;12.14;63.66
15056;BME280;7626;42.674;23.284;2023-01-23T01:38:55;95199.75;;;12.08;63.29
15056;BME280;7626;42.674;23.284;2023-01-23T01:41:23;95199.53;;;12.11;63.17
15056;BME280;7626;42.674;23.284;2023-01-23T01:43:49;95188.53;;;12.07;63.32
15056;BME280;7626;42.674;23.284;2023-01-23T01:46:20;95191.13;;;12.07;63.60
15056;BME280;7626;42.674;23.284;2023-01-23T01:49:02;95190.50;;;12.04;63.41
15056;BME280;7626;42.674;23.284;2023-01-23T01:51:36;95187.09;;;12.03;63.54
15056;BME280;7626;42.674;23.284;2023-01-23T01:54:12;95186.28;;;12.03;63.46
15056;BME280;7626;42.674;23.284;2023-01-23T01:56:56;95184.50;;;12.03;63.46
15056;BME280;7626;42.674;23.284;2023-01-23T01:59:28;95184.72;;;12.00;63.69
15056;BME280;7626;42.674;23.284;2023-01-23T02:02:02;95196.34;;;12.07;63.65
15056;BME280;7626;42.674;23.284;2023-01-23T02:04:32;95196.56;;;12.04;63.79
15056;BME280;7626;42.674;23.284;2023-01-23T02:07:07;95188.28;;;11.99;63.81
15056;BME280;7626;42.674;23.284;2023-01-23T02:09:36;95196.56;;;12.04;63.58
15056;BME280;7626;42.674;23.284;2023-01-23T02:12:05;95194.06;;;12.03;64.04
15056;BME280;7626;42.674;23.284;2023-01-23T02:14:33;95189.91;;;12.00;63.98
15056;BME280;7626;42.674;23.284;2023-01-23T02:17:02;95201.75;;;12.04;63.96
15056;BME280;7626;42.674;23.284;2023-01-23T02:19:39;95209.53;;;12.04;64.09
15056;BME280;7626;42.674;23.284;2023-01-23T02:22:19;95206.00;;;12.05;64.67
15056;BME280;7626;42.674;23.284;2023-01-23T02:24:57;95198.78;;;11.98;64.95
15056;BME280;7626;42.674;23.284;2023-01-23T02:27:28;95201.16;;;12.01;64.82
15056;BME280;7626;42.674;23.284;2023-01-23T02:29:56;95201.38;;;11.98;65.16
15056;BME280;7626;42.674;23.284;2023-01-23T02:32:25;95203.34;;;11.94;64.84
15056;BME280;7626;42.674;23.284;2023-01-23T02:34:56;95192.84;;;11.95;65.39
15056;BME280;7626;42.674;23.284;2023-01-23T02:37:27;95205.31;;;11.90;65.43
15056;BME280;7626;42.674;23.284;2023-01-23T02:39:59;95206.81;;;11.94;65.09
15056;BME280;7626;42.674;23.284;2023-01-23T02:42:34;95208.75;;;11.91;65.37
15056;BME280;7626;42.674;23.284;2023-01-23T02:45:04;95210.31;;;11.93;65.51
15056;BME280;7626;42.674;23.284;2023-01-23T02:47:31;95199.53;;;11.87;65.72
15056;BME280;7626;42.674;23.284;2023-01-23T02:49:59;95200.22;;;11.89;65.78
15056;BME280;7626;42.674;23.284;2023-01-23T02:52:27;95210.50;;;11.90;65.42
15056;BME280;7626;42.674;23.284;2023-01-23T02:54:57;95202.84;;;11.89;65.61
15056;BME280;7626;42.674;23.284;2023-01-23T02:57:25;95200.44;;;11.86;65.86
15056;BME280;7626;42.674;23.284;2023-01-23T02:59:54;95192.56;;;11.87;65.28
15056;BME280;7626;42.674;23.284;2023-01-23T03:02:40;95193.41;;;11.88;65.73
15056;BME280;7626;42.674;23.284;2023-01-23T03:05:08;95197.03;;;11.85;65.64
15056;BME280;7626;42.674;23.284;2023-01-23T03:07:37;95199.53;;;11.87;65.42
15056;BME280;7626;42.674;23.284;2023-01-23T03:10:05;95204.94;;;11.84;65.88
15056;BME280;7626;42.674;23.284;2023-01-23T03:12:34;95209.31;;;11.83;65.28
15056;BME280;7626;42.674;23.284;2023-01-23T03:15:10;95203.06;;;11.86;65.24
15056;BME280;7626;42.674;23.284;2023-01-23T03:17:38;95207.75;;;11.81;65.73
15056;BME280;7626;42.674;23.284;2023-01-23T03:20:06;95204.72;;;11.87;65.50
15056;BME280;7626;42.674;23.284;2023-01-23T03:22:35;95210.13;;;11.84;65.75
15056;BME280;7626;42.674;23.284;2023-01-23T03:25:04;95216.66;;;11.89;65.80
15056;BME280;7626;42.674;23.284;2023-01-23T03:27:32;95210.13;;;11.84;65.56
15056;BME280;7626;42.674;23.284;2023-01-23T03:30:04;95212.50;;;11.87;65.55
15056;BME280;7626;42.674;23.284;2023-01-23T03:32:44;95208.50;;;11.83;65.66
15056;BME280;7626;42.674;23.284;2023-01-23T03:35:14;95194.66;;;11.82;65.72
15056;BME280;7626;42.674;23.284;2023-01-23T03:37:44;95196.31;;;11.83;65.13
15056;BME280;7626;42.674;23.284;2023-01-23T03:40:15;95215.78;;;11.77;64.93
15056;BME280;7626;42.674;23.284;2023-01-23T03:43:04;95208.94;;;11.76;65.15
15056;BME280;7626;42.674;23.284;2023-01-23T03:45:32;95210.34;;;11.81;65.38
15056;BME280;7626;42.674;23.284;2023-01-23T03:48:05;95213.81;;;11.81;64.97
15056;BME280;7626;42.674;23.284;2023-01-23T03:50:33;95199.25;;;11.78;65.18
15056;BME280;7626;42.674;23.284;2023-01-23T03:53:01;95201.75;;;11.80;65.30
15056;BME280;7626;42.674;23.284;2023-01-23T03:55:29;95207.28;;;11.75;64.89
15056;BME280;7626;42.674;23.284;2023-01-23T03:57:59;95210.56;;;11.77;64.89
15056;BME280;7626;42.674;23.284;2023-01-23T04:00:27;95210.56;;;11.77;65.47
15056;BME280;7626;42.674;23.284;2023-01-23T04:02:55;95209.66;;;11.78;65.10
15056;BME280;7626;42.674;23.284;2023-01-23T04:05:29;95217.78;;;11.74;65.46
15056;BME280;7626;42.674;23.284;2023-01-23T04:07:55;95209.75;;;11.77;64.96
15056;BME280;7626;42.674;23.284;2023-01-23T04:10:24;95215.78;;;11.77;65.26
15056;BME280;7626;42.674;23.284;2023-01-23T04:12:52;95216.84;;;11.75;65.04
15056;BME280;7626;42.674;23.284;2023-01-23T04:15:20;95211.75;;;11.73;65.27
15056;BME280;7626;42.674;23.284;2023-01-23T04:17:48;95212.09;;;11.69;65.57
15056;BME280;7626;42.674;23.284;2023-01-23T04:20:16;95219.66;;;11.72;65.39
15056;BME280;7626;42.674;23.284;2023-01-23T04:22:46;95217.88;;;11.72;65.33
15056;BME280;7626;42.674;23.284;2023-01-23T04:25:13;95223.81;;;11.74;65.51
15056;BME280;7626;42.674;23.284;2023-01-23T04:27:39;95224.97;;;11.70;65.61
15056;BME280;7626;42.674;23.284;2023-01-23T04:30:11;95223.53;;;11.66;65.58
15056;BME280;7626;42.674;23.284;2023-01-23T04:32:39;95217.28;;;11.69;65.03
15056;BME280;7626;42.674;23.284;2023-01-23T04:35:08;95229.66;;;11.65;65.18
15056;BME280;7626;42.674;23.284;2023-01-23T04:37:35;95226.25;;;11.65;65.01
15056;BME280;7626;42.674;23.284;2023-01-23T04:40:06;95223.75;;;11.63;65.52
15056;BME280;7626;42.674;23.284;2023-01-23T04:42:34;95223.00;;;11.61;65.32
15056;BME280;7626;42.674;23.284;2023-01-23T04:45:06;95217.59;;;11.64;65.06
15056;BME280;7626;42.674;23.284;2023-01-23T04:47:35;95224.69;;;11.62;65.38
15056;BME280;7626;42.674;23.284;2023-01-23T04:50:04;95234.38;;;11.60;65.06
15056;BME280;7626;42.674;23.284;2023-01-23T04:52:34;95225.50;;;11.63;64.90
15056;BME280;7626;42.674;23.284;2023-01-23T04:55:03;95221.28;;;11.62;64.78
15056;BME280;7626;42.674;23.284;2023-01-23T04:57:32;95230.00;;;11.60;64.76
15056;BME280;7626;42.674;23.284;2023-01-23T05:00:00;95228.22;;;11.61;64.50
15056;BME280;7626;42.674;23.284;2023-01-23T05:02:28;95218.66;;;11.62;64.81
15056;BME280;7626;42.674;23.284;2023-01-23T05:05:08;95225.50;;;11.63;64.90
15056;BME280;7626;42.674;23.284;2023-01-23T05:07:38;95238.50;;;11.63;64.81
15056;BME280;7626;42.674;23.284;2023-01-23T05:10:08;95248.97;;;11.61;64.60
15056;BME280;7626;42.674;23.284;2023-01-23T05:12:37;95239.56;;;11.60;64.66
15056;BME280;7626;42.674;23.284;2023-01-23T05:15:07;95242.47;;;11.55;64.94
15056;BME280;7626;42.674;23.284;2023-01-23T05:17:35;95239.56;;;11.60;64.79
15056;BME280;7626;42.674;23.284;2023-01-23T05:20:07;95249.22;;;11.58;65.19
15056;BME280;7626;42.674;23.284;2023-01-23T05:22:36;95259.72;;;11.56;65.03
15056;BME280;7626;42.674;23.284;2023-01-23T05:25:04;95255.25;;;11.58;64.94
15056;BME280;7626;42.674;23.284;2023-01-23T05:27:33;95262.09;;;11.59;64.76
15056;BME280;7626;42.674;23.284;2023-01-23T05:30:04;95274.84;;;11.63;64.77
15056;BME280;7626;42.674;23.284;2023-01-23T05:32:32;95280.28;;;11.59;64.90
15056;BME280;7626;42.674;23.284;2023-01-23T05:35:00;95284.34;;;11.51;66.22
15056;BME280;7626;42.674;23.284;2023-01-23T05:37:31;95288.19;;;11.58;65.87
15056;BME280;7626;42.674;23.284;2023-01-23T05:39:58;95284.53;;;11.60;65.45
15056;BME280;7626;42.674;23.284;2023-01-23T05:42:28;95281.31;;;11.57;64.85
15056;BME280;7626;42.674;23.284;2023-01-23T05:44:56;95292.22;;;11.62;64.70
15056;BME280;7626;42.674;23.284;2023-01-23T05:47:26;95287.84;;;11.63;64.65
15056;BME280;7626;42.674;23.284;2023-01-23T05:49:53;95296.47;;;11.63;64.96
15056;BME280;7626;42.674;23.284;2023-01-23T05:52:24;95279.81;;;11.66;64.92
15056;BME280;7626;42.674;23.284;2023-01-23T05:54:51;95300.81;;;11.63;65.00
15056;BME280;7626;42.674;23.284;2023-01-23T05:57:19;95287.50;;;11.67;64.47
15056;BME280;7626;42.674;23.284;2023-01-23T05:59:46;95292.81;;;11.66;64.33
15056;BME280;7626;42.674;23.284;2023-01-23T06:02:13;95296.47;;;11.63;64.50
15056;BME280;7626;42.674;23.284;2023-01-23T06:04:45;95301.66;;;11.63;64.31
15056;BME280;7626;42.674;23.284;2023-01-23T06:07:17;95308.50;;;11.64;66.21
15056;BME280;7626;42.674;23.284;2023-01-23T06:09:45;95319.09;;;11.61;65.18
15056;BME280;7626;42.674;23.284;2023-01-23T06:12:12;95317.56;;;11.58;64.89
15056;BME280;7626;42.674;23.284;2023-01-23T06:14:41;95312.91;;;11.51;64.55
15056;BME280;7626;42.674;23.284;2023-01-23T06:17:09;95320.59;;;11.52;64.70
15056;BME280;7626;42.674;23.284;2023-01-23T06:19:37;95318.81;;;11.53;64.08
15056;BME280;7626;42.674;23.284;2023-01-23T06:22:20;95324.97;;;11.52;64.14
15056;BME280;7626;42.674;23.284;2023-01-23T06:24:53;95318.09;;;11.51;63.96
15056;BME280;7626;42.674;23.284;2023-01-23T06:27:20;95322.56;;;11.49;63.83
15056;BME280;7626;42.674;23.284;2023-01-23T06:29:48;95314.25;;;11.56;64.03
15056;BME280;7626;42.674;23.284;2023-01-23T06:32:16;95335.03;;;11.56;63.59
15056;BME280;7626;42.674;23.284;2023-01-23T06:34:43;95338.97;;;11.49;63.86
15056;BME280;7626;42.674;23.284;2023-01-23T06:37:10;95328.09;;;11.44;63.54
15056;BME280;7626;42.674;23.284;2023-01-23T06:39:38;95322.38;;;11.52;63.58
15056;BME280;7626;42.674;23.284;2023-01-23T06:42:05;95318.31;;;11.48;63.32
15056;BME280;7626;42.674;23.284;2023-01-23T06:44:40;95317.38;;;11.49;63.40
15056;BME280;7626;42.674;23.284;2023-01-23T06:47:10;95331.50;;;11.45;63.39
15056;BME280;7626;42.674;23.284;2023-01-23T06:49:37;95325.69;;;11.41;63.24
15056;BME280;7626;42.674;23.284;2023-01-23T06:52:04;95336.28;;;11.38;63.45
15056;BME280;7626;42.674;23.284;2023-01-23T06:54:32;95333.94;;;11.35;63.61
15056;BME280;7626;42.674;23.284;2023-01-23T06:57:03;95333.59;;;11.39;63.98
15056;BME280;7626;42.674;23.284;2023-01-23T06:59:30;95353.75;;;11.36;63.83
15056;BME280;7626;42.674;23.284;2023-01-23T07:01:58;95351.25;;;11.34;63.61
15056;BME280;7626;42.674;23.284;2023-01-23T07:04:26;95352.41;;;11.30;63.97
15056;BME280;7626;42.674;23.284;2023-01-23T07:06:53;95364.34;;;11.33;63.98
15056;BME280;7626;42.674;23.284;2023-01-23T07:09:21;95370.88;;;11.38;64.10
15056;BME280;7626;42.674;23.284;2023-01-23T07:11:49;95372.88;;;11.35;64.43
15056;BME280;7626;42.674;23.284;2023-01-23T07:14:19;95380.66;;;11.35;64.48
15056;BME280;7626;42.674;23.284;2023-01-23T07:16:47;95380.88;;;11.32;64.52
15056;BME280;7626;42.674;23.284;2023-01-23T07:19:15;95373.38;;;11.27;64.48
15056;BME280;7626;42.674;23.284;2023-01-23T07:21:43;95378.56;;;11.27;65.00
15056;BME280;7626;42.674;23.284;2023-01-23T07:24:13;95372.78;;;11.23;64.93
15056;BME280;7626;42.674;23.284;2023-01-23T07:26:43;95380.75;;;11.33;64.82
15056;BME280;7626;42.674;23.284;2023-01-23T07:29:14;95400.97;;;11.28;64.99
15056;BME280;7626;42.674;23.284;2023-01-23T07:31:43;95388.66;;;11.19;65.23
15056;BME280;7626;42.674;23.284;2023-01-23T07:34:11;95389.56;;;11.18;65.06
15056;BME280;7626;42.674;23.284;2023-01-23T07:36:39;95404.00;;;11.09;65.31
15056;BME280;7626;42.674;23.284;2023-01-23T07:39:08;95395.16;;;11.12;65.45
15056;BME280;7626;42.674;23.284;2023-01-23T07:41:36;95387.50;;;11.10;65.64
15056;BME280;7626;42.674;23.284;2023-01-23T07:44:05;95401.31;;;11.11;65.46
15056;BME280;7626;42.674;23.284;2023-01-23T07:46:32;95424.03;;;11.07;65.47
15056;BME280;7626;42.674;23.284;2023-01-23T07:49:04;95393.94;;;11.04;65.51
15056;BME280;7626;42.674;23.284;2023-01-23T07:51:33;95402.44;;;11.07;65.34
15056;BME280;7626;42.674;23.284;2023-01-23T07:54:00;95393.53;;;11.11;65.45
15056;BME280;7626;42.674;23.284;2023-01-23T07:56:28;95407.41;;;11.10;65.71
15056;BME280;7626;42.674;23.284;2023-01-23T07:58:59;95410.97;;;11.09;65.56
15056;BME280;7626;42.674;23.284;2023-01-23T08:01:29;95411.69;;;11.11;65.79
15056;BME280;7626;42.674;23.284;2023-01-23T08:03:56;95414.38;;;11.09;65.81
15056;BME280;7626;42.674;23.284;2023-01-23T08:06:28;95394.13;;;11.14;65.36
15056;BME280;7626;42.674;23.284;2023-01-23T08:08:59;95404.81;;;11.10;65.32
15056;BME280;7626;42.674;23.284;2023-01-23T08:11:29;95404.81;;;11.10;65.15
15056;BME280;7626;42.674;23.284;2023-01-23T08:13:58;95403.91;;;11.11;65.08
15056;BME280;7626;42.674;23.284;2023-01-23T08:16:26;95419.38;;;11.12;64.91
15056;BME280;7626;42.674;23.284;2023-01-23T08:18:53;95422.88;;;11.11;65.25
15056;BME280;7626;42.674;23.284;2023-01-23T08:21:21;95434.75;;;11.15;65.23
15056;BME280;7626;42.674;23.284;2023-01-23T08:23:51;95435.25;;;11.08;65.00
15056;BME280;7626;42.674;23.284;2023-01-23T08:26:19;95440.03;;;11.14;64.72
15056;BME280;7626;42.674;23.284;2023-01-23T08:28:49;95434.53;;;11.18;64.62
15056;BME280;7626;42.674;23.284;2023-01-23T08:31:17;95428.69;;;11.15;64.45
15056;BME280;7626;42.674;23.284;2023-01-23T08:33:45;95445.75;;;11.19;64.09
15056;BME280;7626;42.674;23.284;2023-01-23T08:36:16;95448.13;;;11.09;63.99
15056;BME280;7626;42.674;23.284;2023-01-23T08:38:44;95439.72;;;11.05;63.91
15056;BME280;7626;42.674;23.284;2023-01-23T08:41:15;95460.16;;;11.10;63.72
15056;BME280;7626;42.674;23.284;2023-01-23T08:43:43;95448.13;;;11.09;63.50
15056;BME280;7626;42.674;23.284;2023-01-23T08:46:10;95456.41;;;11.01;63.16
15056;BME280;7626;42.674;23.284;2023-01-23T08:48:37;95468.75;;;10.98;63.39
15056;BME280;7626;42.674;23.284;2023-01-23T08:51:19;95448.72;;;11.00;62.70
15056;BME280;7626;42.674;23.284;2023-01-23T08:53:50;95455.88;;;10.96;62.81
15056;BME280;7626;42.674;23.284;2023-01-23T08:56:21;95461.59;;;11.01;62.68
15056;BME280;7626;42.674;23.284;2023-01-23T08:58:50;95464.28;;;11.00;62.38
15056;BME280;7626;42.674;23.284;2023-01-23T09:01:18;95446.97;;;11.00;62.55
15056;BME280;7626;42.674;23.284;2023-01-23T09:03:49;95448.72;;;11.00;62.53
15056;BME280;7626;42.674;23.284;2023-01-23T09:06:20;95458.28;;;10.99;62.40
15056;BME280;7626;42.674;23.284;2023-01-23T09:08:47;95453.59;;;11.04;62.20
15056;BME280;7626;42.674;23.284;2023-01-23T09:11:15;95465.13;;;11.00;62.21
15056;BME280;7626;42.674;23.284;2023-01-23T09:13:54;95456.72;;;11.10;61.96
15056;BME280;7626;42.674;23.284;2023-01-23T09:16:22;95456.09;;;11.06;61.99
15056;BME280;7626;42.674;23.284;2023-01-23T09:18:53;95454.22;;;11.08;61.65
15056;BME280;7626;42.674;23.284;2023-01-23T09:21:21;95457.56;;;11.10;61.97
15056;BME280;7626;42.674;23.284;2023-01-23T09:23:49;95459.13;;;11.13;61.49
15056;BME280;7626;42.674;23.284;2023-01-23T09:26:17;95479.88;;;11.13;61.44
15056;BME280;7626;42.674;23.284;2023-01-23T09:28:47;95467.19;;;11.08;61.47
15056;BME280;7626;42.674;23.284;2023-01-23T09:31:19;95467.94;;;11.10;61.23
15056;BME280;7626;42.674;23.284;2023-01-23T09:33:47;95477.78;;;11.05;61.62
15056;BME280;7626;42.674;23.284;2023-01-23T09:36:17;95457.34;;;11.00;61.35
15056;BME280;7626;42.674;23.284;2023-01-23T09:38:47;95441.56;;;11.03;61.70
15056;BME280;7626;42.674;23.284;2023-01-23T09:41:18;95449.13;;;11.07;61.66
15056;BME280;7626;42.674;23.284;2023-01-23T09:43:51;95445.91;;;11.03;61.56
15056;BME280;7626;42.674;23.284;2023-01-23T09:46:25;95437.13;;;11.05;61.87
15056;BME280;7626;42.674;23.284;2023-01-23T09:49:01;95437.13;;;11.05;61.57
15056;BME280;7626;42.674;23.284;2023-01-23T09:51:37;95453.69;;;11.03;61.74
15056;BME280;7626;42.674;23.284;2023-01-23T09:54:20;95448.63;;;11.01;61.89
15056;BME280;7626;42.674;23.284;2023-01-23T09:56:51;95450.47;;;10.99;62.08
15056;BME280;7626;42.674;23.284;2023-01-23T09:59:28;95470.63;;;10.96;62.00
15056;BME280;7626;42.674;23.284;2023-01-23T10:02:12;95461.69;;;11.00;61.95
15056;BME280;7626;42.674;23.284;2023-01-23T10:04:40;95454.94;;;10.97;61.89
15056;BME280;7626;42.674;23.284;2023-01-23T10:10:33;95444.88;;;10.93;62.71
15056;BME280;7626;42.674;23.284;2023-01-23T10:13:07;95445.59;;;10.95;62.96
15056;BME280;7626;42.674;23.284;2023-01-23T10:15:57;95436.50;;;11.02;62.81
15056;BME280;7626;42.674;23.284;2023-01-23T10:19:16;95450.34;;;10.88;63.41
15056;BME280;7626;42.674;23.284;2023-01-23T10:21:57;95438.09;;;10.90;63.23
15056;BME280;7626;42.674;23.284;2023-01-23T10:24:38;95441.22;;;10.95;63.08
15056;BME280;7626;42.674;23.284;2023-01-23T10:27:18;95449.88;;;10.96;63.02
15056;BME280;7626;42.674;23.284;2023-01-23T10:29:49;95440.50;;;10.93;63.45
15056;BME280;7626;42.674;23.284;2023-01-23T10:32:23;95440.59;;;10.92;63.80
15056;BME280;7626;42.674;23.284;2023-01-23T10:34:57;95443.63;;;10.98;63.68
15056;BME280;7626;42.674;23.284;2023-01-23T10:37:44;95442.91;;;10.96;63.91
15056;BME280;7626;42.674;23.284;2023-01-23T10:40:16;95448.81;;;10.98;63.66
15056;BME280;7626;42.674;23.284;2023-01-23T10:43:11;95444.78;;;10.94;64.06
15056;BME280;7626;42.674;23.284;2023-01-23T10:45:44;95439.28;;;10.99;63.81
15056;BME280;7626;42.674;23.284;2023-01-23T10:48:39;95437.41;;;11.01;63.69
15056;BME280;7626;42.674;23.284;2023-01-23T10:51:42;95433.47;;;11.08;63.54
15056;BME280;7626;42.674;23.284;2023-01-23T10:54:16;95442.50;;;11.02;63.71
15056;BME280;7626;42.674;23.284;2023-01-23T10:56:53;95435.44;;;11.04;63.98
15056;BME280;7626;42.674;23.284;2023-01-23T10:59:28;95445.50;;;10.96;64.45
15056;BME280;7626;42.674;23.284;2023-01-23T11:02:03;95439.81;;;11.04;64.34
15056;BME280;7626;42.674;23.284;2023-01-23T11:04:47;95438.63;;;10.95;64.68
15056;BME280;7626;42.674;23.284;2023-01-23T11:07:25;95436.78;;;10.97;64.41
15056;BME280;7626;42.674;23.284;2023-01-23T11:09:56;95444.56;;;10.97;64.32
15056;BME280;7626;42.674;23.284;2023-01-23T11:12:26;95444.38;;;11.00;64.36
15056;BME280;7626;42.674;23.284;2023-01-23T11:15:15;95442.69;;;10.99;64.39
15056;BME280;7626;42.674;23.284;2023-01-23T11:17:52;95441.13;;;10.97;64.68
15056;BME280;7626;42.674;23.284;2023-01-23T11:20:26;95439.69;;;10.93;65.21
15056;BME280;7626;42.674;23.284;2023-01-23T11:23:05;95435.84;;;10.98;64.79
15056;BME280;7626;42.674;23.284;2023-01-23T11:25:40;95455.84;;;10.83;65.10
15056;BME280;7626;42.674;23.284;2023-01-23T11:28:21;95443.38;;;10.89;65.00
15056;BME280;7626;42.674;23.284;2023-01-23T11:31:02;95442.56;;;10.88;65.13
15056;BME280;7626;42.674;23.284;2023-01-23T11:33:51;95453.88;;;10.87;65.23
15056;BME280;7626;42.674;23.284;2023-01-23T11:36:40;95439.88;;;10.90;65.22
15056;BME280;7626;42.674;23.284;2023-01-23T11:39:19;95449.25;;;10.92;65.17
15056;BME280;7626;42.674;23.284;2023-01-23T11:41:50;95448.81;;;10.85;65.35
15056;BME280;7626;42.674;23.284;2023-01-23T11:44:20;95445.69;;;10.93;65.25
15056;BME280;7626;42.674;23.284;2023-01-23T11:47:10;95442.47;;;10.90;65.40
15056;BME280;7626;42.674;23.284;2023-01-23T11:52:48;95447.66;;;10.90;65.29
15056;BME280;7626;42.674;23.284;2023-01-23T11:55:48;95443.63;;;10.85;65.81
15056;BME280;7626;42.674;23.284;2023-01-23T12:01:29;95440.81;;;10.89;65.82
15056;BME280;7626;42.674;23.284;2023-01-23T12:04:25;95443.63;;;10.85;65.68
15056;BME280;7626;42.674;23.284;2023-01-23T12:07:10;95434.97;;;10.85;65.86
15056;BME280;7626;42.674;23.284;2023-01-23T12:09:50;95433.97;;;10.88;65.94
15056;BME280;7626;42.674;23.284;2023-01-23T12:12:39;95429.81;;;10.85;65.92
15056;BME280;7626;42.674;23.284;2023-01-23T12:15:18;95425.56;;;10.84;65.90
15056;BME280;7626;42.674;23.284;2023-01-23T12:17:56;95422.13;;;10.83;66.27
15056;BME280;7626;42.674;23.284;2023-01-23T12:20:32;95426.47;;;10.83;65.98
15056;BME280;7626;42.674;23.284;2023-01-23T12:23:25;95427.31;;;10.83;65.98
15056;BME280;7626;42.674;23.284;2023-01-23T12:26:10;95432.59;;;10.82;65.92
15056;BME280;7626;42.674;23.284;2023-01-23T12:32:01;95428.44;;;10.79;66.36
15056;BME280;7626;42.674;23.284;2023-01-23T12:34:47;95421.41;;;10.81;66.43
15056;BME280;7626;42.674;23.284;2023-01-23T12:37:38;95420.56;;;10.81;66.37
15056;BME280;7626;42.674;23.284;2023-01-23T12:40:12;95418.47;;;10.73;66.62
15056;BME280;7626;42.674;23.284;2023-01-23T12:42:50;95440.78;;;10.76;66.73
15056;BME280;7626;42.674;23.284;2023-01-23T12:45:22;95426.16;;;10.75;66.12
15056;BME280;7626;42.674;23.284;2023-01-23T12:47:59;95428.94;;;10.72;66.61
15056;BME280;7626;42.674;23.284;2023-01-23T12:50:36;95436.91;;;10.68;66.46
15056;BME280;7626;42.674;23.284;2023-01-23T12:53:07;95435.69;;;10.74;66.48
15056;BME280;7626;42.674;23.284;2023-01-23T12:55:45;95433.84;;;10.76;66.14
15056;BME280;7626;42.674;23.284;2023-01-23T12:58:19;95429.66;;;10.74;66.44
15056;BME280;7626;42.674;23.284;2023-01-23T13:00:59;95425.44;;;10.73;66.29
15056;BME280;7626;42.674;23.284;2023-01-23T13:03:53;95444.50;;;10.72;66.06
15056;BME280;7626;42.674;23.284;2023-01-23T13:09:38;95438.59;;;10.70;66.20
15056;BME280;7626;42.674;23.284;2023-01-23T13:12:18;95451.84;;;10.65;66.74
15056;BME280;7626;42.674;23.284;2023-01-23T13:14:50;95445.41;;;10.71;66.52
15056;BME280;7626;42.674;23.284;2023-01-23T13:17:30;95452.47;;;10.68;66.71
15056;BME280;7626;42.674;23.284;2023-01-23T13:20:19;95451.13;;;10.63;66.34
15056;BME280;7626;42.674;23.284;2023-01-23T13:23:24;95445.53;;;10.69;66.25
15056;BME280;7626;42.674;23.284;2023-01-23T13:26:11;95449.34;;;10.63;66.45
15056;BME280;7626;42.674;23.284;2023-01-23T13:28:46;95456.31;;;10.63;66.65
15056;BME280;7626;42.674;23.284;2023-01-23T13:31:34;95454.72;;;10.60;66.57
15056;BME280;7626;42.674;23.284;2023-01-23T13:34:34;95448.44;;;10.64;66.87
15056;BME280;7626;42.674;23.284;2023-01-23T13:40:23;95448.81;;;10.58;67.11
15056;BME280;7626;42.674;23.284;2023-01-23T13:42:51;95452.13;;;10.60;66.90
15056;BME280;7626;42.674;23.284;2023-01-23T13:45:30;95454.72;;;10.60;66.70
15056;BME280;7626;42.674;23.284;2023-01-23T13:51:36;95454.00;;;10.58;67.02